sensor_id;sensor_type;location;lat;lon;timestamp;P1;durP1;ratioP1;P2;durP2;ratioP2
42140;SDS011;27809;51.864;5.646;2022-08-21T00:02:00;5.35;;;2.55;;
42140;SDS011;27809;51.864;5.646;2022-08-21T00:04:26;6.05;;;2.90;;
42140;SDS011;27809;51.864;5.646;2022-08-21T00:06:51;9.63;;;3.45;;
42140;SDS011;27809;51.864;5.646;2022-08-21T00:09:18;10.60;;;2.60;;
42140;SDS011;27809;51.864;5.646;2022-08-21T00:11:43;11.20;;;2.40;;
42140;SDS011;27809;51.864;5.646;2022-08-21T00:14:09;5.50;;;2.75;;
42140;SDS011;27809;51.864;5.646;2022-08-21T00:16:36;7.22;;;3.30;;
42140;SDS011;27809;51.864;5.646;2022-08-21T00:19:03;7.28;;;3.40;;
42140;SDS011;27809;51.864;5.646;2022-08-21T00:21:29;9.40;;;3.05;;
42140;SDS011;27809;51.864;5.646;2022-08-21T00:23:54;7.30;;;3.67;;
42140;SDS011;27809;51.864;5.646;2022-08-21T00:26:20;5.45;;;2.78;;
42140;SDS011;27809;51.864;5.646;2022-08-21T00:28:45;3.67;;;2.38;;
42140;SDS011;27809;51.864;5.646;2022-08-21T00:31:13;5.28;;;2.38;;
42140;SDS011;27809;51.864;5.646;2022-08-21T00:33:40;6.18;;;2.75;;
42140;SDS011;27809;51.864;5.646;2022-08-21T00:36:05;5.38;;;3.15;;
42140;SDS011;27809;51.864;5.646;2022-08-21T00:38:31;5.32;;;3.25;;
42140;SDS011;27809;51.864;5.646;2022-08-21T00:40:58;6.68;;;3.65;;
42140;SDS011;27809;51.864;5.646;2022-08-21T00:43:27;6.95;;;2.63;;
42140;SDS011;27809;51.864;5.646;2022-08-21T00:45:55;6.93;;;2.97;;
42140;SDS011;27809;51.864;5.646;2022-08-21T00:48:23;10.77;;;3.05;;
42140;SDS011;27809;51.864;5.646;2022-08-21T00:51:03;8.40;;;3.80;;
42140;SDS011;27809;51.864;5.646;2022-08-21T00:53:34;6.68;;;4.00;;
42140;SDS011;27809;51.864;5.646;2022-08-21T00:56:03;7.10;;;3.08;;
42140;SDS011;27809;51.864;5.646;2022-08-21T00:58:30;5.95;;;3.13;;
42140;SDS011;27809;51.864;5.646;2022-08-21T01:00:57;10.13;;;2.97;;
42140;SDS011;27809;51.864;5.646;2022-08-21T01:03:26;5.15;;;3.30;;
42140;SDS011;27809;51.864;5.646;2022-08-21T01:05:52;7.38;;;2.80;;
42140;SDS011;27809;51.864;5.646;2022-08-21T01:08:18;6.15;;;3.40;;
42140;SDS011;27809;51.864;5.646;2022-08-21T01:10:45;5.35;;;3.25;;
42140;SDS011;27809;51.864;5.646;2022-08-21T01:13:12;9.07;;;3.70;;
42140;SDS011;27809;51.864;5.646;2022-08-21T01:15:42;7.75;;;2.88;;
42140;SDS011;27809;51.864;5.646;2022-08-21T01:18:11;5.22;;;3.00;;
42140;SDS011;27809;51.864;5.646;2022-08-21T01:20:38;5.75;;;4.05;;
42140;SDS011;27809;51.864;5.646;2022-08-21T01:23:07;11.23;;;4.40;;
42140;SDS011;27809;51.864;5.646;2022-08-21T01:25:32;9.30;;;3.92;;
42140;SDS011;27809;51.864;5.646;2022-08-21T01:28:00;10.18;;;3.72;;
42140;SDS011;27809;51.864;5.646;2022-08-21T01:30:29;4.68;;;3.20;;
42140;SDS011;27809;51.864;5.646;2022-08-21T01:32:59;6.80;;;3.75;;
42140;SDS011;27809;51.864;5.646;2022-08-21T01:35:25;8.23;;;4.13;;
42140;SDS011;27809;51.864;5.646;2022-08-21T01:37:50;16.02;;;5.28;;
42140;SDS011;27809;51.864;5.646;2022-08-21T01:40:16;12.93;;;4.40;;
42140;SDS011;27809;51.864;5.646;2022-08-21T01:42:43;11.68;;;3.42;;
42140;SDS011;27809;51.864;5.646;2022-08-21T01:45:10;9.98;;;4.13;;
42140;SDS011;27809;51.864;5.646;2022-08-21T01:47:37;4.80;;;2.72;;
42140;SDS011;27809;51.864;5.646;2022-08-21T01:50:04;5.15;;;3.45;;
42140;SDS011;27809;51.864;5.646;2022-08-21T01:52:31;7.30;;;3.63;;
42140;SDS011;27809;51.864;5.646;2022-08-21T01:54:57;5.30;;;3.60;;
42140;SDS011;27809;51.864;5.646;2022-08-21T01:57:22;6.88;;;4.28;;
42140;SDS011;27809;51.864;5.646;2022-08-21T01:59:48;6.05;;;3.25;;
42140;SDS011;27809;51.864;5.646;2022-08-21T02:02:13;10.57;;;5.03;;
42140;SDS011;27809;51.864;5.646;2022-08-21T02:04:39;8.23;;;4.43;;
42140;SDS011;27809;51.864;5.646;2022-08-21T02:07:04;5.65;;;3.17;;
42140;SDS011;27809;51.864;5.646;2022-08-21T02:09:30;5.35;;;3.30;;
42140;SDS011;27809;51.864;5.646;2022-08-21T02:11:56;5.40;;;3.05;;
42140;SDS011;27809;51.864;5.646;2022-08-21T02:14:21;9.15;;;3.92;;
42140;SDS011;27809;51.864;5.646;2022-08-21T02:16:47;8.95;;;3.47;;
42140;SDS011;27809;51.864;5.646;2022-08-21T02:19:13;6.30;;;3.17;;
42140;SDS011;27809;51.864;5.646;2022-08-21T02:21:40;11.82;;;3.75;;
42140;SDS011;27809;51.864;5.646;2022-08-21T02:24:07;6.43;;;3.80;;
42140;SDS011;27809;51.864;5.646;2022-08-21T02:26:33;3.90;;;3.40;;
42140;SDS011;27809;51.864;5.646;2022-08-21T02:28:59;8.50;;;3.97;;
42140;SDS011;27809;51.864;5.646;2022-08-21T02:31:25;8.15;;;3.65;;
42140;SDS011;27809;51.864;5.646;2022-08-21T02:33:51;5.15;;;3.67;;
42140;SDS011;27809;51.864;5.646;2022-08-21T02:36:17;5.60;;;3.33;;
42140;SDS011;27809;51.864;5.646;2022-08-21T02:38:43;17.00;;;5.20;;
42140;SDS011;27809;51.864;5.646;2022-08-21T02:41:10;7.18;;;3.10;;
42140;SDS011;27809;51.864;5.646;2022-08-21T02:43:38;7.07;;;3.92;;
42140;SDS011;27809;51.864;5.646;2022-08-21T02:46:04;11.52;;;3.55;;
42140;SDS011;27809;51.864;5.646;2022-08-21T02:48:31;7.05;;;5.00;;
42140;SDS011;27809;51.864;5.646;2022-08-21T02:51:03;11.52;;;4.28;;
42140;SDS011;27809;51.864;5.646;2022-08-21T02:53:30;6.97;;;3.53;;
42140;SDS011;27809;51.864;5.646;2022-08-21T02:55:57;9.25;;;4.38;;
42140;SDS011;27809;51.864;5.646;2022-08-21T02:58:26;11.52;;;5.55;;
42140;SDS011;27809;51.864;5.646;2022-08-21T03:00:56;8.98;;;3.42;;
42140;SDS011;27809;51.864;5.646;2022-08-21T03:03:23;9.07;;;4.85;;
42140;SDS011;27809;51.864;5.646;2022-08-21T03:05:49;7.10;;;4.30;;
42140;SDS011;27809;51.864;5.646;2022-08-21T03:08:15;6.15;;;3.55;;
42140;SDS011;27809;51.864;5.646;2022-08-21T03:10:43;7.22;;;3.50;;
42140;SDS011;27809;51.864;5.646;2022-08-21T03:13:12;10.27;;;4.57;;
42140;SDS011;27809;51.864;5.646;2022-08-21T03:15:39;7.28;;;3.75;;
42140;SDS011;27809;51.864;5.646;2022-08-21T03:18:05;8.88;;;4.32;;
42140;SDS011;27809;51.864;5.646;2022-08-21T03:20:32;6.15;;;3.45;;
42140;SDS011;27809;51.864;5.646;2022-08-21T03:23:00;7.53;;;2.40;;
42140;SDS011;27809;51.864;5.646;2022-08-21T03:25:26;6.28;;;4.13;;
42140;SDS011;27809;51.864;5.646;2022-08-21T03:27:52;6.53;;;3.60;;
42140;SDS011;27809;51.864;5.646;2022-08-21T03:30:19;10.35;;;5.05;;
42140;SDS011;27809;51.864;5.646;2022-08-21T03:32:46;5.75;;;3.35;;
42140;SDS011;27809;51.864;5.646;2022-08-21T03:35:12;7.68;;;4.40;;
42140;SDS011;27809;51.864;5.646;2022-08-21T03:37:38;8.13;;;4.30;;
42140;SDS011;27809;51.864;5.646;2022-08-21T03:40:05;7.82;;;4.53;;
42140;SDS011;27809;51.864;5.646;2022-08-21T03:42:33;9.10;;;3.78;;
42140;SDS011;27809;51.864;5.646;2022-08-21T03:44:59;12.50;;;4.35;;
42140;SDS011;27809;51.864;5.646;2022-08-21T03:47:24;8.73;;;4.70;;
42140;SDS011;27809;51.864;5.646;2022-08-21T03:49:50;10.35;;;4.97;;
42140;SDS011;27809;51.864;5.646;2022-08-21T03:52:15;11.93;;;4.90;;
42140;SDS011;27809;51.864;5.646;2022-08-21T03:54:42;9.02;;;4.78;;
42140;SDS011;27809;51.864;5.646;2022-08-21T03:57:08;7.47;;;4.30;;
42140;SDS011;27809;51.864;5.646;2022-08-21T03:59:34;11.25;;;4.45;;
42140;SDS011;27809;51.864;5.646;2022-08-21T04:02:01;14.98;;;4.85;;
42140;SDS011;27809;51.864;5.646;2022-08-21T04:04:29;9.00;;;4.40;;
42140;SDS011;27809;51.864;5.646;2022-08-21T04:06:55;8.52;;;4.50;;
42140;SDS011;27809;51.864;5.646;2022-08-21T04:09:22;9.30;;;4.70;;
42140;SDS011;27809;51.864;5.646;2022-08-21T04:11:48;6.68;;;4.40;;
42140;SDS011;27809;51.864;5.646;2022-08-21T04:14:14;7.65;;;4.85;;
42140;SDS011;27809;51.864;5.646;2022-08-21T04:16:40;10.05;;;5.85;;
42140;SDS011;27809;51.864;5.646;2022-08-21T04:19:07;16.60;;;5.30;;
42140;SDS011;27809;51.864;5.646;2022-08-21T04:21:33;6.15;;;3.88;;
42140;SDS011;27809;51.864;5.646;2022-08-21T04:24:00;8.13;;;5.15;;
42140;SDS011;27809;51.864;5.646;2022-08-21T04:26:25;5.75;;;3.20;;
42140;SDS011;27809;51.864;5.646;2022-08-21T04:28:52;5.53;;;3.63;;
42140;SDS011;27809;51.864;5.646;2022-08-21T04:31:18;8.10;;;4.30;;
42140;SDS011;27809;51.864;5.646;2022-08-21T04:33:44;14.93;;;5.18;;
42140;SDS011;27809;51.864;5.646;2022-08-21T04:36:10;11.65;;;4.80;;
42140;SDS011;27809;51.864;5.646;2022-08-21T04:38:36;7.82;;;4.82;;
42140;SDS011;27809;51.864;5.646;2022-08-21T04:41:02;7.43;;;4.68;;
42140;SDS011;27809;51.864;5.646;2022-08-21T04:43:29;8.13;;;4.68;;
42140;SDS011;27809;51.864;5.646;2022-08-21T04:45:55;10.27;;;5.07;;
42140;SDS011;27809;51.864;5.646;2022-08-21T04:48:21;6.93;;;4.18;;
42140;SDS011;27809;51.864;5.646;2022-08-21T04:51:22;7.13;;;5.15;;
42140;SDS011;27809;51.864;5.646;2022-08-21T04:56:36;8.93;;;5.45;;
42140;SDS011;27809;51.864;5.646;2022-08-21T04:59:00;8.18;;;5.00;;
42140;SDS011;27809;51.864;5.646;2022-08-21T05:01:29;12.02;;;6.22;;
42140;SDS011;27809;51.864;5.646;2022-08-21T05:03:58;9.93;;;4.47;;
42140;SDS011;27809;51.864;5.646;2022-08-21T05:06:25;8.85;;;5.50;;
42140;SDS011;27809;51.864;5.646;2022-08-21T05:08:53;11.48;;;6.40;;
42140;SDS011;27809;51.864;5.646;2022-08-21T05:11:20;11.75;;;5.55;;
42140;SDS011;27809;51.864;5.646;2022-08-21T05:13:47;7.43;;;4.53;;
42140;SDS011;27809;51.864;5.646;2022-08-21T05:16:13;8.85;;;4.93;;
42140;SDS011;27809;51.864;5.646;2022-08-21T05:18:38;7.75;;;4.30;;
42140;SDS011;27809;51.864;5.646;2022-08-21T05:21:04;8.40;;;5.38;;
42140;SDS011;27809;51.864;5.646;2022-08-21T05:23:30;7.07;;;5.18;;
42140;SDS011;27809;51.864;5.646;2022-08-21T05:25:55;8.82;;;5.47;;
42140;SDS011;27809;51.864;5.646;2022-08-21T05:28:21;10.77;;;5.70;;
42140;SDS011;27809;51.864;5.646;2022-08-21T05:30:46;9.52;;;5.82;;
42140;SDS011;27809;51.864;5.646;2022-08-21T05:33:12;7.03;;;4.45;;
42140;SDS011;27809;51.864;5.646;2022-08-21T05:35:38;11.48;;;6.50;;
42140;SDS011;27809;51.864;5.646;2022-08-21T05:38:04;13.35;;;6.63;;
42140;SDS011;27809;51.864;5.646;2022-08-21T05:40:30;11.00;;;6.65;;
42140;SDS011;27809;51.864;5.646;2022-08-21T05:42:57;12.32;;;6.75;;
42140;SDS011;27809;51.864;5.646;2022-08-21T05:45:24;12.07;;;6.38;;
42140;SDS011;27809;51.864;5.646;2022-08-21T05:47:52;11.60;;;7.05;;
42140;SDS011;27809;51.864;5.646;2022-08-21T05:50:18;9.60;;;6.45;;
42140;SDS011;27809;51.864;5.646;2022-08-21T05:52:44;13.55;;;6.15;;
42140;SDS011;27809;51.864;5.646;2022-08-21T05:55:09;13.93;;;7.43;;
42140;SDS011;27809;51.864;5.646;2022-08-21T05:57:35;13.90;;;8.25;;
42140;SDS011;27809;51.864;5.646;2022-08-21T06:00:00;15.63;;;8.23;;
42140;SDS011;27809;51.864;5.646;2022-08-21T06:02:26;14.57;;;8.43;;
42140;SDS011;27809;51.864;5.646;2022-08-21T06:04:51;13.63;;;6.70;;
42140;SDS011;27809;51.864;5.646;2022-08-21T06:07:17;2.25;;;0.98;;
42140;SDS011;27809;51.864;5.646;2022-08-21T06:09:42;2.15;;;1.05;;
42140;SDS011;27809;51.864;5.646;2022-08-21T06:12:10;1.83;;;1.15;;
42140;SDS011;27809;51.864;5.646;2022-08-21T06:14:37;8.20;;;3.70;;
42140;SDS011;27809;51.864;5.646;2022-08-21T06:17:05;1.75;;;1.27;;
42140;SDS011;27809;51.864;5.646;2022-08-21T06:19:35;4.15;;;1.20;;
42140;SDS011;27809;51.864;5.646;2022-08-21T06:22:01;4.78;;;1.52;;
42140;SDS011;27809;51.864;5.646;2022-08-21T06:24:27;2.00;;;1.25;;
42140;SDS011;27809;51.864;5.646;2022-08-21T06:26:53;5.20;;;1.20;;
42140;SDS011;27809;51.864;5.646;2022-08-21T06:29:19;7.30;;;2.28;;
42140;SDS011;27809;51.864;5.646;2022-08-21T06:31:44;7.35;;;2.63;;
42140;SDS011;27809;51.864;5.646;2022-08-21T06:34:11;8.45;;;2.83;;
42140;SDS011;27809;51.864;5.646;2022-08-21T06:36:36;4.22;;;2.08;;
42140;SDS011;27809;51.864;5.646;2022-08-21T06:39:02;7.57;;;2.55;;
42140;SDS011;27809;51.864;5.646;2022-08-21T06:41:28;9.43;;;1.67;;
42140;SDS011;27809;51.864;5.646;2022-08-21T06:43:54;7.82;;;2.53;;
42140;SDS011;27809;51.864;5.646;2022-08-21T06:46:20;8.23;;;2.22;;
42140;SDS011;27809;51.864;5.646;2022-08-21T06:48:46;7.18;;;2.60;;
42140;SDS011;27809;51.864;5.646;2022-08-21T06:51:11;5.32;;;1.90;;
42140;SDS011;27809;51.864;5.646;2022-08-21T06:53:37;10.27;;;2.80;;
42140;SDS011;27809;51.864;5.646;2022-08-21T06:56:03;5.97;;;1.55;;
42140;SDS011;27809;51.864;5.646;2022-08-21T06:58:29;11.73;;;3.03;;
42140;SDS011;27809;51.864;5.646;2022-08-21T07:00:55;8.00;;;2.15;;
42140;SDS011;27809;51.864;5.646;2022-08-21T07:03:24;6.90;;;2.53;;
42140;SDS011;27809;51.864;5.646;2022-08-21T07:05:52;6.63;;;1.80;;
42140;SDS011;27809;51.864;5.646;2022-08-21T07:08:18;11.57;;;3.15;;
42140;SDS011;27809;51.864;5.646;2022-08-21T07:10:45;18.50;;;2.20;;
42140;SDS011;27809;51.864;5.646;2022-08-21T07:13:11;5.60;;;1.70;;
42140;SDS011;27809;51.864;5.646;2022-08-21T07:15:37;7.75;;;2.58;;
42140;SDS011;27809;51.864;5.646;2022-08-21T07:18:03;6.53;;;1.95;;
42140;SDS011;27809;51.864;5.646;2022-08-21T07:20:29;10.43;;;2.50;;
42140;SDS011;27809;51.864;5.646;2022-08-21T07:22:59;5.45;;;1.20;;
42140;SDS011;27809;51.864;5.646;2022-08-21T07:25:28;10.63;;;2.75;;
42140;SDS011;27809;51.864;5.646;2022-08-21T07:27:53;3.75;;;0.82;;
42140;SDS011;27809;51.864;5.646;2022-08-21T07:30:19;10.90;;;3.13;;
42140;SDS011;27809;51.864;5.646;2022-08-21T07:32:45;8.77;;;1.98;;
42140;SDS011;27809;51.864;5.646;2022-08-21T07:35:13;7.55;;;1.95;;
42140;SDS011;27809;51.864;5.646;2022-08-21T07:37:39;9.80;;;1.10;;
42140;SDS011;27809;51.864;5.646;2022-08-21T07:40:05;8.32;;;2.17;;
42140;SDS011;27809;51.864;5.646;2022-08-21T07:42:31;6.68;;;2.25;;
42140;SDS011;27809;51.864;5.646;2022-08-21T07:44:57;7.68;;;1.92;;
42140;SDS011;27809;51.864;5.646;2022-08-21T07:47:22;9.32;;;2.47;;
42140;SDS011;27809;51.864;5.646;2022-08-21T07:49:48;14.40;;;3.47;;
42140;SDS011;27809;51.864;5.646;2022-08-21T07:52:13;7.63;;;2.22;;
42140;SDS011;27809;51.864;5.646;2022-08-21T07:54:40;4.57;;;1.30;;
42140;SDS011;27809;51.864;5.646;2022-08-21T07:57:05;6.68;;;2.30;;
42140;SDS011;27809;51.864;5.646;2022-08-21T07:59:31;8.50;;;1.55;;
42140;SDS011;27809;51.864;5.646;2022-08-21T08:01:56;13.18;;;2.40;;
42140;SDS011;27809;51.864;5.646;2022-08-21T08:04:22;6.07;;;1.70;;
42140;SDS011;27809;51.864;5.646;2022-08-21T08:06:47;6.60;;;2.42;;
42140;SDS011;27809;51.864;5.646;2022-08-21T08:09:13;12.30;;;3.42;;
42140;SDS011;27809;51.864;5.646;2022-08-21T08:11:39;5.97;;;1.10;;
42140;SDS011;27809;51.864;5.646;2022-08-21T08:14:08;6.38;;;1.23;;
42140;SDS011;27809;51.864;5.646;2022-08-21T08:16:34;7.00;;;1.70;;
42140;SDS011;27809;51.864;5.646;2022-08-21T08:19:00;9.65;;;2.03;;
42140;SDS011;27809;51.864;5.646;2022-08-21T08:21:25;7.70;;;2.38;;
42140;SDS011;27809;51.864;5.646;2022-08-21T08:23:51;9.52;;;2.13;;
42140;SDS011;27809;51.864;5.646;2022-08-21T08:26:17;8.98;;;2.20;;
42140;SDS011;27809;51.864;5.646;2022-08-21T08:28:42;14.57;;;2.75;;
42140;SDS011;27809;51.864;5.646;2022-08-21T08:31:08;13.40;;;3.70;;
42140;SDS011;27809;51.864;5.646;2022-08-21T08:33:34;6.70;;;2.20;;
42140;SDS011;27809;51.864;5.646;2022-08-21T08:35:59;10.30;;;2.22;;
42140;SDS011;27809;51.864;5.646;2022-08-21T08:38:25;7.65;;;1.10;;
42140;SDS011;27809;51.864;5.646;2022-08-21T08:40:55;7.60;;;1.73;;
42140;SDS011;27809;51.864;5.646;2022-08-21T08:43:25;7.80;;;1.30;;
42140;SDS011;27809;51.864;5.646;2022-08-21T08:45:52;5.85;;;1.42;;
42140;SDS011;27809;51.864;5.646;2022-08-21T08:51:16;6.55;;;1.05;;
42140;SDS011;27809;51.864;5.646;2022-08-21T08:54:00;8.25;;;1.38;;
42140;SDS011;27809;51.864;5.646;2022-08-21T08:56:32;6.20;;;1.35;;
42140;SDS011;27809;51.864;5.646;2022-08-21T08:59:01;6.38;;;1.88;;
42140;SDS011;27809;51.864;5.646;2022-08-21T09:01:43;7.93;;;1.30;;
42140;SDS011;27809;51.864;5.646;2022-08-21T09:04:09;7.75;;;1.05;;
42140;SDS011;27809;51.864;5.646;2022-08-21T09:06:43;7.60;;;1.30;;
42140;SDS011;27809;51.864;5.646;2022-08-21T09:11:48;4.85;;;1.00;;
42140;SDS011;27809;51.864;5.646;2022-08-21T09:17:39;3.90;;;1.17;;
42140;SDS011;27809;51.864;5.646;2022-08-21T09:20:32;7.13;;;1.33;;
42140;SDS011;27809;51.864;5.646;2022-08-21T09:23:20;6.18;;;1.73;;
42140;SDS011;27809;51.864;5.646;2022-08-21T09:28:39;3.45;;;1.00;;
42140;SDS011;27809;51.864;5.646;2022-08-21T09:31:29;8.98;;;1.40;;
42140;SDS011;27809;51.864;5.646;2022-08-21T09:34:00;7.88;;;2.10;;
42140;SDS011;27809;51.864;5.646;2022-08-21T09:36:31;9.05;;;1.13;;
42140;SDS011;27809;51.864;5.646;2022-08-21T09:39:02;8.93;;;1.00;;
42140;SDS011;27809;51.864;5.646;2022-08-21T09:41:30;7.60;;;1.25;;
42140;SDS011;27809;51.864;5.646;2022-08-21T09:43:57;3.72;;;1.20;;
42140;SDS011;27809;51.864;5.646;2022-08-21T09:46:24;4.35;;;1.02;;
42140;SDS011;27809;51.864;5.646;2022-08-21T09:48:52;2.53;;;0.88;;
42140;SDS011;27809;51.864;5.646;2022-08-21T09:51:23;4.03;;;0.50;;
42140;SDS011;27809;51.864;5.646;2022-08-21T09:56:39;6.68;;;1.85;;
42140;SDS011;27809;51.864;5.646;2022-08-21T09:59:36;5.30;;;2.00;;
42140;SDS011;27809;51.864;5.646;2022-08-21T10:02:23;4.68;;;0.75;;
42140;SDS011;27809;51.864;5.646;2022-08-21T10:04:57;4.47;;;0.98;;
42140;SDS011;27809;51.864;5.646;2022-08-21T10:07:26;4.68;;;0.60;;
42140;SDS011;27809;51.864;5.646;2022-08-21T10:09:58;12.55;;;1.92;;
42140;SDS011;27809;51.864;5.646;2022-08-21T10:12:29;7.15;;;1.27;;
42140;SDS011;27809;51.864;5.646;2022-08-21T10:26:33;9.55;;;2.17;;
42140;SDS011;27809;51.864;5.646;2022-08-21T10:32:16;4.25;;;1.00;;
42140;SDS011;27809;51.864;5.646;2022-08-21T10:39:29;3.55;;;0.45;;
42140;SDS011;27809;51.864;5.646;2022-08-21T10:42:14;14.93;;;0.90;;
42140;SDS011;27809;51.864;5.646;2022-08-21T10:50:12;7.05;;;0.80;;
42140;SDS011;27809;51.864;5.646;2022-08-21T10:55:55;2.42;;;0.57;;
42140;SDS011;27809;51.864;5.646;2022-08-21T10:58:30;2.22;;;0.40;;
42140;SDS011;27809;51.864;5.646;2022-08-21T11:01:07;5.07;;;0.98;;
42140;SDS011;27809;51.864;5.646;2022-08-21T11:03:42;9.50;;;1.58;;
42140;SDS011;27809;51.864;5.646;2022-08-21T11:06:14;3.38;;;0.45;;
42140;SDS011;27809;51.864;5.646;2022-08-21T11:09:03;9.63;;;0.50;;
42140;SDS011;27809;51.864;5.646;2022-08-21T11:11:36;3.83;;;0.60;;
42140;SDS011;27809;51.864;5.646;2022-08-21T11:14:11;7.80;;;1.25;;
42140;SDS011;27809;51.864;5.646;2022-08-21T11:17:18;1.15;;;0.35;;
42140;SDS011;27809;51.864;5.646;2022-08-21T11:19:54;4.40;;;1.15;;
42140;SDS011;27809;51.864;5.646;2022-08-21T11:23:26;7.53;;;1.20;;
42140;SDS011;27809;51.864;5.646;2022-08-21T11:25:36;4.25;;;0.57;;
42140;SDS011;27809;51.864;5.646;2022-08-21T11:33:58;4.25;;;0.35;;
42140;SDS011;27809;51.864;5.646;2022-08-21T11:37:24;3.97;;;0.40;;
42140;SDS011;27809;51.864;5.646;2022-08-21T11:42:28;1.80;;;0.45;;
42140;SDS011;27809;51.864;5.646;2022-08-21T11:50:46;3.70;;;0.93;;
42140;SDS011;27809;51.864;5.646;2022-08-21T11:53:17;5.55;;;1.63;;
42140;SDS011;27809;51.864;5.646;2022-08-21T11:55:54;5.85;;;0.93;;
42140;SDS011;27809;51.864;5.646;2022-08-21T11:58:30;2.75;;;0.30;;
42140;SDS011;27809;51.864;5.646;2022-08-21T12:01:10;3.60;;;0.55;;
42140;SDS011;27809;51.864;5.646;2022-08-21T12:03:55;5.00;;;1.10;;
42140;SDS011;27809;51.864;5.646;2022-08-21T12:06:30;4.85;;;1.33;;
42140;SDS011;27809;51.864;5.646;2022-08-21T12:09:03;2.95;;;0.30;;
42140;SDS011;27809;51.864;5.646;2022-08-21T12:11:31;4.78;;;0.68;;
42140;SDS011;27809;51.864;5.646;2022-08-21T12:14:11;1.80;;;0.40;;
42140;SDS011;27809;51.864;5.646;2022-08-21T12:16:40;4.13;;;0.30;;
42140;SDS011;27809;51.864;5.646;2022-08-21T12:19:09;1.40;;;0.20;;
42140;SDS011;27809;51.864;5.646;2022-08-21T12:21:48;1.20;;;0.30;;
42140;SDS011;27809;51.864;5.646;2022-08-21T12:24:32;2.42;;;0.50;;
42140;SDS011;27809;51.864;5.646;2022-08-21T12:29:46;5.13;;;1.40;;
42140;SDS011;27809;51.864;5.646;2022-08-21T12:32:54;2.05;;;0.32;;
42140;SDS011;27809;51.864;5.646;2022-08-21T12:35:26;3.45;;;0.40;;
42140;SDS011;27809;51.864;5.646;2022-08-21T12:40:41;3.13;;;0.30;;
42140;SDS011;27809;51.864;5.646;2022-08-21T12:43:21;5.88;;;0.95;;
42140;SDS011;27809;51.864;5.646;2022-08-21T12:46:01;1.27;;;0.30;;
42140;SDS011;27809;51.864;5.646;2022-08-21T12:48:31;2.28;;;0.40;;
42140;SDS011;27809;51.864;5.646;2022-08-21T12:53:50;3.67;;;0.70;;
42140;SDS011;27809;51.864;5.646;2022-08-21T12:56:18;7.72;;;0.35;;
42140;SDS011;27809;51.864;5.646;2022-08-21T12:58:47;5.47;;;0.50;;
42140;SDS011;27809;51.864;5.646;2022-08-21T13:01:32;2.35;;;0.47;;
42140;SDS011;27809;51.864;5.646;2022-08-21T13:04:04;4.25;;;0.30;;
42140;SDS011;27809;51.864;5.646;2022-08-21T13:06:39;1.77;;;0.20;;
42140;SDS011;27809;51.864;5.646;2022-08-21T13:09:12;2.92;;;0.20;;
42140;SDS011;27809;51.864;5.646;2022-08-21T13:11:41;7.03;;;0.35;;
42140;SDS011;27809;51.864;5.646;2022-08-21T13:16:59;2.00;;;0.20;;
42140;SDS011;27809;51.864;5.646;2022-08-21T13:19:25;3.47;;;0.65;;
42140;SDS011;27809;51.864;5.646;2022-08-21T13:21:51;2.85;;;0.73;;
42140;SDS011;27809;51.864;5.646;2022-08-21T13:24:19;3.70;;;0.20;;
42140;SDS011;27809;51.864;5.646;2022-08-21T13:26:48;2.20;;;0.60;;
42140;SDS011;27809;51.864;5.646;2022-08-21T13:29:16;3.58;;;0.68;;
42140;SDS011;27809;51.864;5.646;2022-08-21T13:31:47;2.03;;;0.20;;
42140;SDS011;27809;51.864;5.646;2022-08-21T13:34:17;6.43;;;0.30;;
42140;SDS011;27809;51.864;5.646;2022-08-21T13:36:48;3.88;;;0.30;;
42140;SDS011;27809;51.864;5.646;2022-08-21T13:39:19;5.03;;;2.13;;
42140;SDS011;27809;51.864;5.646;2022-08-21T13:41:46;1.45;;;0.28;;
42140;SDS011;27809;51.864;5.646;2022-08-21T13:46:51;3.05;;;0.28;;
42140;SDS011;27809;51.864;5.646;2022-08-21T13:49:18;3.13;;;0.40;;
42140;SDS011;27809;51.864;5.646;2022-08-21T13:51:51;2.00;;;0.30;;
42140;SDS011;27809;51.864;5.646;2022-08-21T13:54:25;4.65;;;0.63;;
42140;SDS011;27809;51.864;5.646;2022-08-21T13:56:55;2.63;;;0.30;;
42140;SDS011;27809;51.864;5.646;2022-08-21T13:59:24;1.25;;;0.40;;
42140;SDS011;27809;51.864;5.646;2022-08-21T14:01:52;3.15;;;0.57;;
42140;SDS011;27809;51.864;5.646;2022-08-21T14:04:34;3.40;;;0.70;;
42140;SDS011;27809;51.864;5.646;2022-08-21T14:07:01;3.45;;;0.43;;
42140;SDS011;27809;51.864;5.646;2022-08-21T14:09:42;3.90;;;0.32;;
42140;SDS011;27809;51.864;5.646;2022-08-21T14:12:13;2.33;;;0.38;;
42140;SDS011;27809;51.864;5.646;2022-08-21T14:14:42;3.78;;;0.73;;
42140;SDS011;27809;51.864;5.646;2022-08-21T14:17:10;3.42;;;0.45;;
42140;SDS011;27809;51.864;5.646;2022-08-21T14:19:50;3.97;;;0.75;;
42140;SDS011;27809;51.864;5.646;2022-08-21T14:22:35;5.45;;;0.70;;
42140;SDS011;27809;51.864;5.646;2022-08-21T14:25:05;3.28;;;0.82;;
42140;SDS011;27809;51.864;5.646;2022-08-21T14:27:34;2.58;;;0.30;;
42140;SDS011;27809;51.864;5.646;2022-08-21T14:30:10;2.85;;;0.40;;
42140;SDS011;27809;51.864;5.646;2022-08-21T14:32:43;2.65;;;0.30;;
42140;SDS011;27809;51.864;5.646;2022-08-21T14:35:10;3.75;;;0.60;;
42140;SDS011;27809;51.864;5.646;2022-08-21T14:37:36;1.17;;;0.40;;
42140;SDS011;27809;51.864;5.646;2022-08-21T14:40:03;6.18;;;1.30;;
42140;SDS011;27809;51.864;5.646;2022-08-21T14:42:30;4.20;;;0.40;;
42140;SDS011;27809;51.864;5.646;2022-08-21T14:44:56;6.85;;;0.52;;
42140;SDS011;27809;51.864;5.646;2022-08-21T14:47:25;3.75;;;0.35;;
42140;SDS011;27809;51.864;5.646;2022-08-21T14:49:51;2.90;;;0.20;;
42140;SDS011;27809;51.864;5.646;2022-08-21T14:52:18;1.23;;;0.30;;
42140;SDS011;27809;51.864;5.646;2022-08-21T14:54:44;3.50;;;0.40;;
42140;SDS011;27809;51.864;5.646;2022-08-21T14:57:10;2.50;;;0.47;;
42140;SDS011;27809;51.864;5.646;2022-08-21T14:59:37;3.65;;;0.90;;
42140;SDS011;27809;51.864;5.646;2022-08-21T15:02:03;3.42;;;0.77;;
42140;SDS011;27809;51.864;5.646;2022-08-21T15:04:31;4.18;;;0.70;;
42140;SDS011;27809;51.864;5.646;2022-08-21T15:06:57;3.20;;;0.30;;
42140;SDS011;27809;51.864;5.646;2022-08-21T15:09:23;3.30;;;0.20;;
42140;SDS011;27809;51.864;5.646;2022-08-21T15:11:48;2.38;;;0.60;;
42140;SDS011;27809;51.864;5.646;2022-08-21T15:14:18;4.13;;;0.47;;
42140;SDS011;27809;51.864;5.646;2022-08-21T15:16:48;4.85;;;0.40;;
42140;SDS011;27809;51.864;5.646;2022-08-21T15:19:14;1.92;;;0.30;;
42140;SDS011;27809;51.864;5.646;2022-08-21T15:21:40;3.22;;;0.50;;
42140;SDS011;27809;51.864;5.646;2022-08-21T15:24:06;3.85;;;0.47;;
42140;SDS011;27809;51.864;5.646;2022-08-21T15:26:33;2.35;;;0.50;;
42140;SDS011;27809;51.864;5.646;2022-08-21T15:28:59;2.20;;;0.20;;
42140;SDS011;27809;51.864;5.646;2022-08-21T15:31:25;2.97;;;0.30;;
42140;SDS011;27809;51.864;5.646;2022-08-21T15:33:50;3.58;;;0.70;;
42140;SDS011;27809;51.864;5.646;2022-08-21T15:36:16;4.38;;;0.90;;
42140;SDS011;27809;51.864;5.646;2022-08-21T15:38:44;5.18;;;0.50;;
42140;SDS011;27809;51.864;5.646;2022-08-21T15:41:09;6.95;;;0.75;;
42140;SDS011;27809;51.864;5.646;2022-08-21T15:43:45;2.85;;;0.85;;
42140;SDS011;27809;51.864;5.646;2022-08-21T15:46:13;1.80;;;0.60;;
42140;SDS011;27809;51.864;5.646;2022-08-21T15:48:41;1.30;;;0.40;;
42140;SDS011;27809;51.864;5.646;2022-08-21T15:51:08;1.08;;;0.32;;
42140;SDS011;27809;51.864;5.646;2022-08-21T15:53:35;2.03;;;0.35;;
42140;SDS011;27809;51.864;5.646;2022-08-21T15:56:05;2.05;;;0.30;;
42140;SDS011;27809;51.864;5.646;2022-08-21T15:58:36;3.97;;;0.82;;
42140;SDS011;27809;51.864;5.646;2022-08-21T16:01:01;1.08;;;0.30;;
42140;SDS011;27809;51.864;5.646;2022-08-21T16:03:27;3.22;;;0.30;;
42140;SDS011;27809;51.864;5.646;2022-08-21T16:05:53;3.25;;;0.85;;
42140;SDS011;27809;51.864;5.646;2022-08-21T16:08:21;14.80;;;1.08;;
42140;SDS011;27809;51.864;5.646;2022-08-21T16:10:47;8.30;;;0.52;;